Time;durP1;ratioP1;P1;durP2;ratioP2;P2;SDS_P1;SDS_P2;PMS_P1;PMS_P2;Temp;Humidity;BMP_temperature;BMP_pressure;BME280_temperature;BME280_humidity;BME280_pressure;Samples;Min_cycle;Max_cycle;Signal;HPM_P1;HPM_P2
2022/09/25 10:41:18;;;;;;;;;3.00;1.00;;;;;21.07;39.84;101148.00;5086992;27;45519;-67
2022/09/25 10:44:27;;;;;;;;;0.00;0.00;;;;;21.67;38.68;101146.75;5062955;27;45349;-67
2022/09/25 10:52:51;;;;;;;;;0.00;0.00;;;;;25.15;33.02;101132.06;5064259;28;45432;-63
2022/09/25 10:55:30;;;;;;;;;1.00;1.00;;;;;27.99;29.98;101133.50;5049462;28;45412;-65
2022/09/25 10:58:13;;;;;;;;;0.00;0.00;;;;;30.19;26.48;101124.56;5049733;28;45590;-65
2022/09/25 11:00:49;;;;;;;;;0.50;0.50;;;;;31.22;24.12;101122.13;5065252;28;45483;-67
2022/09/25 11:03:22;;;;;;;;;1.00;1.00;;;;;32.65;23.68;101115.91;5052330;28;46120;-64
2022/09/25 11:06:00;;;;;;;;;0.00;0.00;;;;;33.89;22.06;101117.75;5056904;28;45528;-63
2022/09/25 11:08:31;;;;;;;;;1.00;1.00;;;;;34.51;21.57;101111.13;5067324;28;45531;-63
2022/09/25 11:11:00;;;;;;;;;1.00;0.00;;;;;35.27;20.97;101123.94;5071658;28;45365;-64
2022/09/25 11:13:35;;;;;;;;;2.20;1.00;;;;;35.94;20.16;101116.47;5066660;28;45941;-65
2022/09/25 11:16:08;;;;;;;;;1.00;1.00;;;;;36.21;18.87;101115.59;5070595;27;45324;-64
2022/09/25 11:18:36;;;;;;;;;1.80;1.20;;;;;36.02;18.13;101132.94;5066284;28;45585;-64
2022/09/25 11:21:04;;;;;;;;;0.80;0.80;;;;;35.70;18.28;101121.63;5065012;28;45515;-66
2022/09/25 11:23:40;;;;;;;;;0.80;0.80;;;;;35.03;18.60;101124.41;5069648;28;45580;-64
2022/09/25 11:26:24;;;;;;;;;3.00;1.00;;;;;35.36;18.28;101130.38;5066281;28;45472;-66
2022/09/25 11:29:12;;;;;;;;;3.00;1.20;;;;;35.79;18.16;101132.47;5067501;28;45421;-64
2022/09/25 11:31:50;;;;;;;;;3.40;2.20;;;;;36.40;18.01;101135.53;5058550;27;45929;-63
2022/09/25 11:34:47;;;;;;;;;2.80;1.00;;;;;36.59;17.74;101135.44;5065288;28;46079;-63
2022/09/25 11:37:34;;;;;;;;;0.40;0.40;;;;;37.33;17.21;101125.03;5064128;28;45575;-67
2022/09/25 11:43:02;;;;;;;;;0.00;0.00;;;;;38.10;17.48;101117.69;5087638;27;45410;-63
2022/09/25 11:45:35;;;;;;;;;0.40;0.40;;;;;38.59;17.41;101136.09;5085147;27;45516;-62
2022/09/25 11:48:09;;;;;;;;;0.00;0.00;;;;;39.06;16.94;101116.22;5068077;27;45570;-62
2022/09/25 11:51:12;;;;;;;;;1.00;0.00;;;;;39.72;17.09;101126.97;5084342;27;46555;-63
2022/09/25 11:54:15;;;;;;;;;2.20;0.00;;;;;40.20;16.45;101122.25;5070021;28;45499;-62
2022/09/25 11:56:53;;;;;;;;;0.20;0.20;;;;;40.46;15.48;101119.16;5061349;28;46213;-64
2022/09/25 11:59:42;;;;;;;;;0.80;0.80;;;;;40.15;14.19;101116.47;5065691;28;45300;-64
2022/09/25 12:02:30;;;;;;;;;1.00;0.80;;;;;38.10;15.09;101119.56;5067630;28;45365;-63
2022/09/25 12:05:17;;;;;;;;;2.20;0.80;;;;;36.87;15.45;101117.03;5060359;27;45533;-63
2022/09/25 12:07:43;;;;;;;;;0.40;0.40;;;;;36.51;16.14;101122.50;5060479;28;46153;-63
2022/09/25 12:10:44;;;;;;;;;0.00;0.00;;;;;36.99;15.89;101112.16;5053942;28;45716;-63
2022/09/25 12:13:14;;;;;;;;;1.00;1.00;;;;;36.81;15.98;101111.38;5052168;28;45788;-65
2022/09/25 12:15:53;;;;;;;;;2.00;0.00;;;;;37.08;16.21;101113.97;5059673;28;46619;-64
2022/09/25 12:18:32;;;;;;;;;0.40;0.40;;;;;37.61;16.12;101106.56;5053593;28;47540;-64
2022/09/25 12:21:40;;;;;;;;;3.60;0.80;;;;;36.66;15.84;101106.50;5061711;28;45381;-62
2022/09/25 12:24:17;;;;;;;;;0.00;0.00;;;;;36.35;16.99;101110.59;5057141;28;45514;-64
2022/09/25 12:27:00;;;;;;;;;0.00;0.00;;;;;37.19;16.39;101106.53;5068242;27;46082;-64
2022/09/25 12:29:27;;;;;;;;;1.60;1.60;;;;;36.84;15.60;101103.72;5058538;28;45377;-65
2022/09/25 12:32:12;;;;;;;;;1.00;1.00;;;;;36.44;16.37;101101.47;5065211;27;45734;-63
2022/09/25 12:34:49;;;;;;;;;2.80;2.00;;;;;34.28;18.66;101096.94;5052952;28;45888;-65
2022/09/25 12:37:42;;;;;;;;;16.25;12.25;;;;;34.31;18.82;101095.81;5047377;28;45900;-64
2022/09/25 12:40:37;;;;;;;;;16.75;15.00;;;;;32.03;20.66;101090.38;5057177;28;46660;-63
2022/09/25 12:43:10;;;;;;;;;80.00;76.75;;;;;30.95;22.82;101106.25;5066564;28;45498;-63
2022/09/25 12:45:59;;;;;;;;;58.33;47.00;;;;;29.78;23.22;101096.06;5029246;28;45519;-64
2022/09/25 12:48:38;;;;;;;;;40.00;35.33;;;;;29.11;24.42;101099.03;5067831;28;45942;-63
2022/09/25 12:51:33;;;;;;;;;38.00;33.67;;;;;30.60;23.57;101093.56;5056655;28;45415;-63
2022/09/25 12:54:23;;;;;;;;;15.00;15.00;;;;;31.36;22.11;101092.13;5048238;28;45426;-64
2022/09/25 12:56:59;;;;;;;;;9.50;8.75;;;;;31.70;22.14;101075.88;5065671;28;45696;-63
2022/09/25 12:59:36;;;;;;;;;8.50;6.75;;;;;31.89;21.65;101083.34;5059905;28;45687;-60
2022/09/25 13:02:08;;;;;;;;;8.00;8.00;;;;;31.91;22.03;101079.53;5072633;28;45758;-63
2022/09/25 13:05:01;;;;;;;;;10.75;10.25;;;;;31.80;20.77;101076.88;5066234;27;45585;-62
2022/09/25 13:07:35;;;;;;;;;8.25;8.25;;;;;31.34;21.72;101085.97;5053183;28;45457;-62
2022/09/25 13:10:06;;;;;;;;;1.40;1.40;;;;;30.71;21.10;101077.41;5053689;28;45495;-62
2022/09/25 13:12:37;;;;;;;;;0.40;0.40;;;;;30.04;21.32;101074.38;5071040;28;45480;-63
2022/09/25 13:15:09;;;;;;;;;1.00;1.00;;;;;29.29;21.93;101072.63;5069583;28;45434;-63
2022/09/25 13:17:36;;;;;;;;;1.00;1.00;;;;;28.87;23.41;101070.09;5064606;28;45576;-63
2022/09/25 13:20:36;;;;;;;;;0.00;0.00;;;;;28.45;24.17;101069.38;5073981;28;45346;-63
2022/09/25 13:23:07;;;;;;;;;0.60;0.00;;;;;28.53;23.96;101050.03;5029371;28;46252;-64
2022/09/25 13:25:58;;;;;;;;;1.40;0.20;;;;;28.30;24.30;101068.56;5066700;28;45328;-63
2022/09/25 13:28:51;;;;;;;;;0.40;0.00;;;;;28.15;24.89;101066.91;5059148;28;45337;-63
2022/09/25 13:31:35;;;;;;;;;0.25;0.25;;;;;28.05;24.65;101053.19;5063663;27;46251;-62
2022/09/25 13:34:14;;;;;;;;;1.00;1.00;;;;;28.20;25.41;101069.31;5058525;28;45367;-62
2022/09/25 13:36:51;;;;;;;;;2.80;2.00;;;;;28.36;25.33;101061.03;5072447;28;45556;-62
2022/09/25 13:42:42;;;;;;;;;2.00;2.00;;;;;28.19;25.03;101063.06;5056260;28;45485;-61
2022/09/25 13:45:28;;;;;;;;;1.50;1.50;;;;;28.15;25.12;101057.97;5067226;28;46679;-62
2022/09/25 13:48:02;;;;;;;;;1.20;1.20;;;;;27.82;25.82;101057.38;5070547;28;45501;-62
2022/09/25 13:50:36;;;;;;;;;2.60;2.00;;;;;27.45;25.40;101058.88;5070730;28;45822;-60
2022/09/25 13:53:17;;;;;;;;;1.00;1.00;;;;;27.08;26.03;101063.88;5039548;28;46092;-60
2022/09/25 13:55:54;;;;;;;;;2.00;1.00;;;;;26.75;26.28;101059.59;5066232;28;46366;-63
2022/09/25 13:58:28;;;;;;;;;1.00;1.00;;;;;26.50;26.43;101068.22;5051320;28;45535;-62
2022/09/25 14:00:57;;;;;;;;;1.00;1.00;;;;;26.30;26.46;101055.13;5070730;28;45454;-61
2022/09/25 14:03:48;;;;;;;;;1.00;1.00;;;;;26.08;26.43;101051.00;5063934;27;45832;-61
2022/09/25 14:06:23;;;;;;;;;1.00;1.00;;;;;25.93;27.13;101051.88;5068159;27;45407;-61
2022/09/25 14:08:50;;;;;;;;;2.75;2.75;;;;;25.83;27.54;101058.69;5074993;27;45343;-62
2022/09/25 14:11:26;;;;;;;;;4.75;4.00;;;;;25.69;27.22;101054.97;5065334;28;45421;-63
2022/09/25 14:13:54;;;;;;;;;3.25;3.00;;;;;25.64;27.58;101050.81;5052191;28;45582;-62
2022/09/25 14:16:30;;;;;;;;;2.75;2.75;;;;;25.45;27.87;101051.84;5065097;28;46563;-61
2022/09/25 14:19:00;;;;;;;;;1.00;1.00;;;;;25.34;27.87;101049.78;5057374;28;45497;-61
2022/09/25 14:21:28;;;;;;;;;4.00;1.50;;;;;25.23;28.37;101052.16;5058740;28;45378;-61
2022/09/25 14:23:56;;;;;;;;;2.00;2.00;;;;;25.12;28.77;101050.00;5056099;28;45477;-62
2022/09/25 14:26:27;;;;;;;;;1.00;1.00;;;;;24.98;28.73;101053.44;5054797;28;45492;-61
2022/09/25 14:28:56;;;;;;;;;1.00;1.00;;;;;24.86;29.43;101047.88;5068685;28;45809;-61
2022/09/25 14:31:28;;;;;;;;;0.50;0.50;;;;;24.79;28.92;101052.69;5073532;28;45397;-62
2022/09/25 14:34:36;;;;;;;;;0.00;0.00;;;;;24.69;29.05;101052.28;5063406;27;45379;-61
2022/09/25 14:37:23;;;;;;;;;2.00;2.00;;;;;24.60;29.67;101049.22;5062802;28;46549;-63
2022/09/25 14:40:12;;;;;;;;;2.50;2.50;;;;;24.55;29.40;101046.78;5067523;28;45400;-61
2022/09/25 14:42:52;;;;;;;;;3.25;3.00;;;;;24.48;29.75;101046.22;5070331;28;45759;-61
2022/09/25 14:45:50;;;;;;;;;3.00;3.00;;;;;24.41;29.92;101036.75;5076891;28;45192;-61
2022/09/25 14:48:35;;;;;;;;;1.00;1.00;;;;;24.34;30.25;101043.34;5073065;28;45622;-61
2022/09/25 14:51:07;;;;;;;;;2.00;1.00;;;;;24.26;30.16;101035.72;5073218;28;45481;-62
2022/09/25 14:54:04;;;;;;;;;1.00;1.00;;;;;24.23;30.43;101040.38;5072933;27;45338;-62
2022/09/25 14:56:33;;;;;;;;;0.00;0.00;;;;;24.04;30.36;101027.91;5058551;28;46773;-61
2022/09/25 14:59:06;;;;;;;;;2.00;0.25;;;;;23.96;30.87;101043.47;5054491;28;45518;-62
2022/09/25 15:01:32;;;;;;;;;0.00;0.00;;;;;23.77;31.36;101039.94;5072463;28;45569;-61
2022/09/25 15:04:03;;;;;;;;;2.00;1.00;;;;;23.55;32.58;101048.09;5061893;28;45315;-62
2022/09/25 15:06:32;;;;;;;;;1.00;1.00;;;;;23.41;33.46;101046.94;5070991;28;45441;-62
2022/09/25 15:09:01;;;;;;;;;0.00;0.00;;;;;23.26;33.43;101035.16;5061552;28;46590;-63
2022/09/25 15:11:38;;;;;;;;;1.00;1.00;;;;;23.19;33.68;101046.22;5057250;28;45814;-62
2022/09/25 15:14:20;;;;;;;;;0.00;0.00;;;;;23.07;33.53;101051.16;5050333;28;45364;-63
2022/09/25 15:19:40;;;;;;;;;0.00;0.00;;;;;22.84;33.54;101037.94;5072739;27;45520;-62
2022/09/25 15:22:14;;;;;;;;;0.00;0.00;;;;;22.81;33.58;101048.75;5072447;28;45464;-63
2022/09/25 15:24:48;;;;;;;;;0.00;0.00;;;;;22.74;34.04;101047.28;5072688;28;45540;-62
2022/09/25 15:27:15;;;;;;;;;1.00;1.00;;;;;22.65;34.40;101044.06;5075423;28;45399;-63
2022/09/25 15:29:44;;;;;;;;;1.00;1.00;;;;;22.53;34.30;101033.94;5075773;28;47281;-62
2022/09/25 15:32:19;;;;;;;;;1.00;1.00;;;;;22.36;34.58;101032.00;5075815;28;45407;-64
2022/09/25 15:34:45;;;;;;;;;1.00;0.00;;;;;22.16;34.95;101029.25;5076290;28;45818;-63
2022/09/25 15:37:17;;;;;;;;;0.00;0.00;;;;;22.03;35.51;101032.44;5057803;28;45395;-63
2022/09/25 15:39:43;;;;;;;;;1.00;1.00;;;;;21.91;35.37;101030.25;5068652;28;46503;-62
2022/09/25 15:42:14;;;;;;;;;0.00;0.00;;;;;21.83;35.52;101024.38;5071530;28;45788;-63
2022/09/25 15:44:40;;;;;;;;;1.00;1.00;;;;;21.75;35.53;101030.00;5057454;28;45350;-63
2022/09/25 15:47:22;;;;;;;;;1.00;1.00;;;;;21.67;35.38;101025.94;5076120;27;45504;-62
2022/09/25 15:49:48;;;;;;;;;0.67;0.67;;;;;21.59;35.86;101023.53;5075868;28;45464;-63
2022/09/25 15:52:32;;;;;;;;;2.33;1.00;;;;;21.45;35.65;101015.22;5075841;28;45412;-65
2022/09/25 15:55:08;;;;;;;;;0.00;0.00;;;;;21.45;36.00;101032.09;5054427;28;45594;-63
2022/09/25 15:57:34;;;;;;;;;0.00;0.00;;;;;21.40;36.08;101020.72;5070019;28;45434;-63
2022/09/25 16:06:02;;;;;;;;;1.00;1.00;;;;;21.35;36.48;101028.00;5075805;27;45473;-63
2022/09/25 16:08:35;;;;;;;;;1.00;0.00;;;;;21.32;37.53;101042.31;5075842;27;45575;-62
2022/09/25 16:11:03;;;;;;;;;0.00;0.00;;;;;21.25;38.35;101045.25;5075423;28;45604;-62
2022/09/25 16:13:29;;;;;;;;;0.00;0.00;;;;;21.19;38.84;101049.03;5075511;28;45384;-61
2022/09/25 16:15:55;;;;;;;;;1.67;1.00;;;;;21.15;39.49;101044.75;5075620;28;45398;-62
2022/09/25 16:18:39;;;;;;;;;2.00;0.00;;;;;21.07;39.63;101050.34;5076019;28;45485;-61
2022/09/25 16:21:22;;;;;;;;;1.00;1.00;;;;;20.96;40.07;101048.06;5078422;28;45497;-64
2022/09/25 16:23:54;;;;;;;;;0.00;0.00;;;;;20.88;40.14;101051.91;5075526;27;45563;-64
2022/09/25 16:26:23;;;;;;;;;1.33;0.67;;;;;20.83;40.60;101059.22;5075978;27;45829;-64
2022/09/25 16:29:16;;;;;;;;;1.33;1.00;;;;;20.81;40.82;101066.38;5075357;28;45483;-63
2022/09/25 16:31:43;;;;;;;;;2.00;0.33;;;;;20.77;40.58;101059.44;5069152;28;46124;-64
2022/09/25 16:34:33;;;;;;;;;0.67;0.67;;;;;20.70;41.57;101074.75;5076550;27;45338;-63
2022/09/25 16:37:04;;;;;;;;;0.33;0.33;;;;;20.66;42.06;101071.31;5076806;27;45683;-61
2022/09/25 16:39:36;;;;;;;;;1.00;1.00;;;;;20.64;42.58;101075.81;5069193;28;45527;-63
2022/09/25 16:42:20;;;;;;;;;0.00;0.00;;;;;20.61;43.15;101086.56;5071178;27;45310;-63
2022/09/25 16:44:46;;;;;;;;;1.00;1.00;;;;;20.56;44.56;101079.69;5079517;28;45463;-61
2022/09/25 16:47:27;;;;;;;;;0.33;0.33;;;;;20.46;46.30;101076.44;5059253;28;45968;-63
2022/09/25 16:49:53;;;;;;;;;0.00;0.00;;;;;20.37;45.24;101072.28;5040462;28;45466;-61
2022/09/25 16:52:22;;;;;;;;;1.00;1.00;;;;;20.40;45.23;101079.28;5077913;28;46095;-62
2022/09/25 16:54:53;;;;;;;;;1.67;0.00;;;;;20.38;45.22;101078.47;5074540;27;45441;-62
2022/09/25 16:57:24;;;;;;;;;1.00;1.00;;;;;20.21;48.84;101074.56;5074633;28;45715;-63
2022/09/25 16:59:51;;;;;;;;;1.00;1.00;;;;;19.86;49.49;101073.94;5076779;28;45284;-62
2022/09/25 17:02:31;;;;;;;;;1.00;1.00;;;;;19.80;49.32;101084.72;5078902;28;45465;-64
2022/09/25 17:05:22;;;;;;;;;1.00;1.00;;;;;19.72;49.16;101078.78;5074600;27;45458;-63
2022/09/25 17:07:50;;;;;;;;;1.00;1.00;;;;;19.69;49.74;101079.75;5056286;28;45351;-62
2022/09/25 17:10:18;;;;;;;;;2.00;2.00;;;;;19.66;49.19;101079.78;5069512;28;45359;-65
2022/09/25 17:12:46;;;;;;;;;3.00;1.00;;;;;19.73;48.30;101071.69;5057537;28;45577;-64
2022/09/25 17:15:24;;;;;;;;;3.00;2.00;;;;;19.57;49.05;101071.25;5078172;27;45850;-63
2022/09/25 17:17:53;;;;;;;;;4.00;1.67;;;;;19.40;49.24;101071.75;5079015;28;45350;-63
2022/09/25 17:20:19;;;;;;;;;3.00;3.00;;;;;19.28;49.00;101083.59;5076859;28;45493;-64
2022/09/25 17:22:45;;;;;;;;;2.00;2.00;;;;;19.08;49.54;101062.94;5074053;28;45798;-63
2022/09/25 17:25:19;;;;;;;;;2.00;2.00;;;;;19.18;48.94;101085.63;5074517;28;45458;-63
2022/09/25 17:27:45;;;;;;;;;2.00;2.00;;;;;19.20;48.51;101085.59;5077799;28;45362;-63
2022/09/25 17:30:11;;;;;;;;;2.00;2.00;;;;;19.23;48.26;101085.50;5078629;28;45497;-63
2022/09/25 17:32:37;;;;;;;;;2.00;2.00;;;;;19.16;48.31;101090.13;5078487;28;45471;-63
2022/09/25 17:35:26;;;;;;;;;2.67;1.67;;;;;19.18;48.16;101093.59;5062155;28;45402;-62
2022/09/25 17:37:52;;;;;;;;;1.00;1.00;;;;;19.08;48.20;101086.81;5052460;28;46002;-63
2022/09/25 17:40:19;;;;;;;;;2.67;2.67;;;;;18.87;48.36;101058.22;5061988;28;45482;-62
2022/09/25 17:42:44;;;;;;;;;2.00;2.00;;;;;18.74;48.64;101063.78;5076504;27;46566;-62
2022/09/25 17:45:26;;;;;;;;;3.00;2.00;;;;;18.98;47.83;101091.50;5078676;28;45413;-62
2022/09/25 17:47:55;;;;;;;;;3.00;3.00;;;;;19.06;47.68;101102.78;5075910;27;45480;-63
2022/09/25 17:50:21;;;;;;;;;2.33;1.00;;;;;19.10;47.17;101100.94;5073419;27;45838;-62
2022/09/25 17:52:47;;;;;;;;;2.00;2.00;;;;;19.10;47.54;101103.59;5038703;28;46527;-62
2022/09/25 17:55:19;;;;;;;;;2.00;1.67;;;;;19.00;47.40;101091.44;5073895;27;45609;-62
2022/09/25 17:57:46;;;;;;;;;3.67;2.00;;;;;19.03;47.26;101105.53;5075614;28;45445;-62
2022/09/25 18:00:12;;;;;;;;;2.00;2.00;;;;;19.07;46.68;101111.59;5078192;27;45458;-62
2022/09/25 18:02:38;;;;;;;;;3.00;2.00;;;;;18.97;47.71;101100.38;5074665;27;45465;-63
2022/09/25 18:05:04;;;;;;;;;3.33;3.00;;;;;18.98;47.21;101099.47;5073402;27;45541;-63
2022/09/25 18:07:30;;;;;;;;;2.00;2.00;;;;;18.91;46.78;101078.44;5070771;28;45391;-63
2022/09/25 18:09:56;;;;;;;;;1.00;1.00;;;;;19.04;46.26;101099.28;5069842;28;45572;-64
2022/09/25 18:12:22;;;;;;;;;3.00;1.00;;;;;19.06;46.29;101093.94;5055077;28;47818;-62
2022/09/25 18:14:49;;;;;;;;;1.33;1.33;;;;;18.99;46.20;101087.06;5061386;28;45449;-62
2022/09/25 18:17:16;;;;;;;;;2.00;2.00;;;;;19.06;46.51;101096.59;5078564;28;45325;-65
2022/09/25 18:22:28;;;;;;;;;6.00;2.00;;;;;18.96;47.18;101093.34;5063697;27;45900;-62
2022/09/25 18:24:57;;;;;;;;;3.00;3.00;;;;;18.90;47.27;101082.00;5078041;27;45739;-61
2022/09/25 18:27:33;;;;;;;;;3.00;3.00;;;;;18.93;48.16;101098.69;5071549;28;45350;-62
2022/09/25 18:29:58;;;;;;;;;2.00;2.00;;;;;18.75;48.82;101093.88;5067677;28;45504;-62
2022/09/25 18:32:25;;;;;;;;;3.00;3.00;;;;;18.72;48.32;101099.25;5076842;28;45996;-61
2022/09/25 18:34:51;;;;;;;;;2.00;2.00;;;;;18.74;48.75;101092.13;5076879;28;45397;-63
2022/09/25 18:37:17;;;;;;;;;4.67;1.33;;;;;18.68;47.99;101087.84;5070068;28;45386;-62
2022/09/25 18:39:44;;;;;;;;;3.00;2.33;;;;;18.76;48.14;101088.53;5034885;28;45501;-62
2022/09/25 18:42:13;;;;;;;;;6.00;3.33;;;;;18.83;47.87;101094.56;5066715;28;46760;-64
2022/09/25 18:44:39;;;;;;;;;2.33;2.00;;;;;18.85;47.35;101100.72;5064591;28;45367;-62
2022/09/25 18:47:05;;;;;;;;;4.00;4.00;;;;;18.78;47.23;101084.06;5071561;28;45398;-62
2022/09/25 18:49:30;;;;;;;;;4.00;4.00;;;;;18.85;46.90;101098.06;5051836;28;45503;-62
2022/09/25 18:51:58;;;;;;;;;3.00;3.00;;;;;18.85;46.72;101100.72;5066442;28;46002;-63
2022/09/25 18:54:24;;;;;;;;;3.67;2.00;;;;;18.84;46.40;101093.66;5053533;28;44897;-61
2022/09/25 18:56:57;;;;;;;;;4.33;3.33;;;;;18.80;46.62;101087.56;5044455;28;45554;-63
2022/09/25 18:59:25;;;;;;;;;5.33;2.00;;;;;18.78;46.61;101077.91;5055114;27;45390;-62
2022/09/25 19:01:53;;;;;;;;;2.00;2.00;;;;;18.93;46.42;101101.34;5073574;28;46047;-65
2022/09/25 19:04:29;;;;;;;;;3.00;3.00;;;;;18.84;46.10;101080.41;5065501;27;45294;-65
2022/09/25 19:06:56;;;;;;;;;3.33;1.00;;;;;18.87;46.37;101090.94;5069801;27;45772;-62
2022/09/25 19:09:23;;;;;;;;;6.00;2.00;;;;;18.91;46.69;101099.66;5039613;28;46066;-61
2022/09/25 19:11:55;;;;;;;;;3.00;1.00;;;;;18.87;46.30;101100.69;5051209;28;46056;-63
2022/09/25 19:14:22;;;;;;;;;3.00;1.00;;;;;18.86;46.40;101099.78;5052670;28;45494;-61
2022/09/25 19:16:51;;;;;;;;;4.00;2.67;;;;;18.92;46.14;101112.03;5060188;28;45745;-63
2022/09/25 19:19:18;;;;;;;;;2.00;2.00;;;;;18.88;46.36;101094.44;5037030;28;45505;-63
2022/09/25 19:21:44;;;;;;;;;3.00;2.00;;;;;18.91;46.29;101107.63;5057823;28;46614;-66
2022/09/25 19:24:11;;;;;;;;;2.67;2.33;;;;;18.91;46.25;101103.22;5059409;28;45456;-63
2022/09/25 19:26:37;;;;;;;;;2.00;1.00;;;;;18.87;45.99;101103.31;5062320;28;45351;-62
2022/09/25 19:29:04;;;;;;;;;3.00;2.00;;;;;18.84;45.76;101101.63;5039506;28;46080;-67
2022/09/25 19:31:30;;;;;;;;;2.33;2.00;;;;;18.89;45.83;101105.03;5057609;28;45489;-62
2022/09/25 19:34:02;;;;;;;;;1.00;1.00;;;;;18.82;45.59;101091.03;5059966;27;45463;-63
2022/09/25 19:36:36;;;;;;;;;2.00;2.00;;;;;18.86;45.51;101105.09;5061880;28;45375;-63
2022/09/25 19:39:02;;;;;;;;;1.00;1.00;;;;;18.86;45.66;101107.75;5063554;28;45370;-66
2022/09/25 19:41:58;;;;;;;;;;;;;;;;;;;;;
2022/09/25 19:44:24;;;;;;;;;1.33;1.33;;;;;18.88;44.84;101110.38;5057635;28;73029;-63
2022/09/25 19:47:08;;;;;;;;;1.33;1.00;;;;;18.74;44.96;101078.84;5061410;28;45469;-65
2022/09/25 19:49:34;;;;;;;;;3.00;2.00;;;;;18.73;44.47;101090.38;5054862;28;45490;-64
2022/09/25 19:52:02;;;;;;;;;1.67;1.00;;;;;18.83;44.52;101107.81;5060548;28;46164;-64
2022/09/25 19:54:29;;;;;;;;;1.00;1.00;;;;;18.77;44.30;101108.88;5071810;27;46330;-66
2022/09/25 19:57:00;;;;;;;;;1.00;1.00;;;;;18.77;44.48;101100.91;5052664;28;45478;-62
2022/09/25 19:59:27;;;;;;;;;2.00;2.00;;;;;18.80;44.27;101106.13;5060490;28;45505;-63
2022/09/25 20:01:53;;;;;;;;;4.00;2.00;;;;;18.78;44.27;101099.13;5052074;28;46098;-65
2022/09/25 20:04:19;;;;;;;;;2.67;2.00;;;;;18.77;44.30;101110.63;5055167;28;45392;-63
2022/09/25 20:06:45;;;;;;;;;3.67;3.00;;;;;18.74;44.43;101111.56;5070544;28;45435;-65
2022/09/25 20:09:18;;;;;;;;;2.00;2.00;;;;;18.72;44.09;101104.53;5079511;28;45522;-64
2022/09/25 20:11:47;;;;;;;;;1.00;1.00;;;;;18.70;44.20;101109.91;5069019;27;46315;-64
2022/09/25 20:14:13;;;;;;;;;1.00;1.00;;;;;18.68;43.98;101110.88;5071020;28;45408;-66
2022/09/25 20:16:39;;;;;;;;;1.00;1.00;;;;;18.57;44.08;101084.59;5057605;28;45390;-64
2022/09/25 20:19:06;;;;;;;;;1.00;1.00;;;;;18.61;44.15;101089.78;5080087;28;45476;-65
2022/09/25 20:21:35;;;;;;;;;1.00;1.00;;;;;18.62;44.11;101088.00;5059497;28;46994;-62
2022/09/25 20:24:03;;;;;;;;;1.00;1.00;;;;;18.63;43.99;101085.31;5056778;28;45477;-63
2022/09/25 20:26:29;;;;;;;;;0.67;0.00;;;;;18.56;44.16;101070.47;5063913;28;45754;-63
2022/09/25 20:28:57;;;;;;;;;1.00;1.00;;;;;18.59;43.92;101086.28;5046194;28;45546;-64
2022/09/25 20:31:25;;;;;;;;;1.00;1.00;;;;;18.54;44.00;101071.41;5054290;28;46025;-66
2022/09/25 20:33:51;;;;;;;;;1.00;0.67;;;;;18.49;43.94;101066.22;5068242;28;45387;-64
2022/09/25 20:36:17;;;;;;;;;0.67;0.67;;;;;18.49;44.07;101070.66;5071345;27;45383;-62
2022/09/25 20:38:46;;;;;;;;;1.67;0.67;;;;;18.44;44.16;101076.97;5056274;28;45373;-64
2022/09/25 20:41:12;;;;;;;;;2.00;1.00;;;;;18.38;43.97;101069.13;5059897;28;46364;-62
2022/09/25 20:43:39;;;;;;;;;2.67;1.33;;;;;18.38;44.17;101069.13;5077807;28;45572;-63
2022/09/25 20:46:08;;;;;;;;;1.33;1.33;;;;;18.42;44.25;101069.94;5074458;28;45716;-63
2022/09/25 20:48:36;;;;;;;;;0.00;0.00;;;;;18.41;44.43;101068.19;5077083;27;45355;-63
2022/09/25 20:51:07;;;;;;;;;2.00;1.00;;;;;18.38;44.15;101062.97;5075767;28;46207;-63
2022/09/25 20:53:33;;;;;;;;;2.00;1.00;;;;;18.39;44.33;101064.72;5073970;27;45374;-63
2022/09/25 20:56:05;;;;;;;;;1.00;1.00;;;;;18.31;44.20;101049.00;5059408;28;46197;-63
2022/09/25 20:58:31;;;;;;;;;2.67;0.00;;;;;18.31;44.38;101045.47;5041663;28;45415;-63
2022/09/25 21:01:06;;;;;;;;;0.00;0.00;;;;;18.40;44.26;101063.81;5062343;28;46063;-63
2022/09/25 21:03:37;;;;;;;;;2.00;0.00;;;;;18.41;44.23;101068.19;5066439;28;45504;-63
2022/09/25 21:06:06;;;;;;;;;1.00;1.00;;;;;18.38;44.20;101060.31;5063726;28;45509;-65
2022/09/25 21:08:32;;;;;;;;;1.00;1.00;;;;;18.38;44.39;101070.94;5070417;28;45391;-63
2022/09/25 21:11:00;;;;;;;;;2.00;1.00;;;;;18.37;44.68;101064.75;5059415;28;45473;-63
2022/09/25 21:13:27;;;;;;;;;3.00;1.67;;;;;18.27;45.03;101065.00;5072754;28;45488;-64
2022/09/25 21:15:53;;;;;;;;;1.00;0.00;;;;;18.20;45.13;101072.28;5068186;28;45731;-63
2022/09/25 21:18:20;;;;;;;;;2.67;1.00;;;;;18.21;45.23;101066.03;5076394;27;45326;-66
2022/09/25 21:20:46;;;;;;;;;1.00;1.00;;;;;18.23;45.05;101072.19;5072438;28;45485;-64
2022/09/25 21:23:12;;;;;;;;;1.00;1.00;;;;;18.24;44.83;101071.25;5064180;28;45395;-65
2022/09/25 21:25:37;;;;;;;;;1.00;1.00;;;;;18.25;44.68;101074.78;5078272;28;45551;-63
2022/09/25 21:28:03;;;;;;;;;1.00;0.00;;;;;18.25;44.66;101074.78;5065103;28;45313;-62
2022/09/25 21:30:30;;;;;;;;;1.00;1.00;;;;;18.26;44.82;101077.41;5049771;28;47728;-63
2022/09/25 21:32:56;;;;;;;;;0.33;0.00;;;;;18.17;44.67;101057.28;5053431;28;45537;-63
2022/09/25 21:35:22;;;;;;;;;1.00;0.00;;;;;18.23;45.05;101081.00;5062786;28;45584;-63
2022/09/25 21:37:47;;;;;;;;;1.00;1.00;;;;;18.16;44.88;101060.00;5072497;28;45770;-63
2022/09/25 21:40:13;;;;;;;;;0.00;0.00;;;;;18.20;45.04;101067.84;5053451;28;46283;-62
2022/09/25 21:42:38;;;;;;;;;1.00;1.00;;;;;18.13;45.19;101060.94;5061076;28;45438;-62
2022/09/25 21:45:06;;;;;;;;;1.00;1.00;;;;;18.21;45.27;101068.69;5061966;28;45346;-63
2022/09/25 21:47:32;;;;;;;;;1.33;1.00;;;;;18.18;45.64;101071.44;5064065;28;45481;-63
2022/09/25 21:49:57;;;;;;;;;0.67;0.67;;;;;18.14;45.42;101065.31;5078243;28;45407;-63
2022/09/25 21:52:24;;;;;;;;;2.67;1.00;;;;;18.15;45.24;101060.88;5077700;28;45899;-63
2022/09/25 21:54:50;;;;;;;;;1.33;0.67;;;;;18.00;45.30;101046.22;5063798;28;45513;-64
2022/09/25 21:57:16;;;;;;;;;1.00;1.00;;;;;17.84;45.96;101028.94;5055844;28;45424;-64
2022/09/25 21:59:44;;;;;;;;;1.00;1.00;;;;;18.01;45.68;101055.94;5053938;28;48084;-65
2022/09/25 22:02:09;;;;;;;;;0.00;0.00;;;;;18.02;45.78;101052.38;5076290;28;45422;-64
2022/09/25 22:04:46;;;;;;;;;0.33;0.33;;;;;17.84;45.95;101039.53;5064047;28;46670;-67
2022/09/25 22:07:12;;;;;;;;;2.00;1.00;;;;;17.70;46.70;101021.28;5074228;28;45602;-66
2022/09/25 22:09:38;;;;;;;;;1.00;1.00;;;;;17.80;46.33;101036.97;5074267;28;46465;-65
2022/09/25 22:12:03;;;;;;;;;0.00;0.00;;;;;17.84;46.46;101043.06;5078033;27;45382;-63
2022/09/25 22:14:29;;;;;;;;;1.00;1.00;;;;;17.83;46.84;101036.03;5075258;28;45465;-64
2022/09/25 22:16:58;;;;;;;;;2.00;0.00;;;;;17.65;47.00;101031.97;5052107;28;45503;-64
2022/09/25 22:19:26;;;;;;;;;1.00;1.00;;;;;17.66;47.08;101038.16;5062593;28;46544;-63
2022/09/25 22:21:53;;;;;;;;;1.00;1.00;;;;;17.66;47.30;101039.03;5073066;28;45776;-62
2022/09/25 22:24:19;;;;;;;;;1.00;1.00;;;;;17.50;47.32;101035.84;5063329;28;45556;-63
2022/09/25 22:26:47;;;;;;;;;1.00;1.00;;;;;17.53;47.52;101026.94;5068344;28;45941;-62
2022/09/25 22:29:13;;;;;;;;;0.00;0.00;;;;;17.60;47.22;101036.50;5077870;28;46286;-62
2022/09/25 22:31:42;;;;;;;;;0.67;0.00;;;;;17.54;47.32;101021.63;5064005;27;45453;-63
2022/09/25 22:34:14;;;;;;;;;0.67;0.67;;;;;17.65;47.17;101034.63;5055008;28;45416;-62
2022/09/25 22:36:40;;;;;;;;;0.67;0.67;;;;;17.60;46.93;101025.91;5073083;28;45465;-63
2022/09/25 22:39:05;;;;;;;;;0.00;0.00;;;;;17.72;46.89;101032.72;5071065;27;46518;-63
2022/09/25 22:41:31;;;;;;;;;0.33;0.00;;;;;17.60;47.31;101021.47;5063635;28;45445;-63
2022/09/25 22:43:57;;;;;;;;;1.00;0.33;;;;;17.67;47.04;101026.66;5056246;28;45465;-64
2022/09/25 22:46:24;;;;;;;;;1.00;1.00;;;;;17.65;47.31;101031.97;5066846;28;45508;-62
2022/09/25 22:48:50;;;;;;;;;0.00;0.00;;;;;17.60;47.26;101023.25;5065844;28;46122;-62
2022/09/25 22:51:21;;;;;;;;;2.00;0.33;;;;;17.68;47.02;101031.06;5063445;28;45362;-63
2022/09/25 22:53:47;;;;;;;;;1.00;1.00;;;;;17.71;46.51;101025.69;5063410;28;45745;-63
2022/09/25 22:56:18;;;;;;;;;1.33;0.67;;;;;17.73;46.87;101016.78;5076279;28;45355;-63